Time;durP1;ratioP1;P1;durP2;ratioP2;P2;SDS_P1;SDS_P2;PMS_P1;PMS_P2;Temp;Humidity;BMP_temperature;BMP_pressure;BME280_temperature;BME280_humidity;BME280_pressure;Samples;Min_cycle;Max_cycle;Signal;HPM_P1;HPM_P2
2023/12/09 00:02:00;;;;;;;42.30;16.90;;;;;;;7.78;100.00;100817.19;5033744;28;20033;-75
2023/12/09 00:04:26;;;;;;;41.15;17.58;;;;;;;7.79;100.00;100819.63;5032232;28;20049;-75
2023/12/09 00:06:51;;;;;;;38.67;16.55;;;;;;;7.84;100.00;100811.03;5033133;28;20062;-75
2023/12/09 00:09:19;;;;;;;52.33;20.25;;;;;;;7.84;100.00;100812.97;5037856;28;20025;-75
2023/12/09 00:11:45;;;;;;;39.10;15.50;;;;;;;7.84;100.00;100815.75;5043535;28;20037;-75
2023/12/09 00:14:10;;;;;;;44.50;18.40;;;;;;;7.88;100.00;100806.31;5035796;28;20040;-75
2023/12/09 00:16:36;;;;;;;31.73;16.63;;;;;;;7.83;100.00;100814.97;5035793;28;20029;-75
2023/12/09 00:19:02;;;;;;;34.35;15.73;;;;;;;7.84;100.00;100808.22;5032803;28;20030;-75
2023/12/09 00:21:27;;;;;;;38.67;15.75;;;;;;;7.83;100.00;100812.19;5032860;28;20063;-75
2023/12/09 00:23:53;;;;;;;39.80;14.77;;;;;;;7.83;100.00;100823.31;5034308;28;20025;-76
2023/12/09 00:26:18;;;;;;;49.13;16.95;;;;;;;7.86;100.00;100819.81;5042449;28;20044;-76
2023/12/09 00:28:45;;;;;;;35.58;14.65;;;;;;;7.81;100.00;100806.16;5042239;28;20037;-75
2023/12/09 00:31:10;;;;;;;40.53;16.02;;;;;;;7.84;100.00;100805.44;5041101;28;20443;-76
2023/12/09 00:33:35;;;;;;;40.97;17.80;;;;;;;7.84;100.00;100805.44;5043057;28;20033;-75
2023/12/09 00:36:01;;;;;;;50.47;15.48;;;;;;;7.83;100.00;100812.19;5043411;28;20030;-76
2023/12/09 00:38:27;;;;;;;34.58;16.02;;;;;;;7.89;100.00;100819.09;5039970;28;20036;-77
2023/12/09 00:40:52;;;;;;;37.30;15.10;;;;;;;7.78;100.00;100811.63;5031773;28;20094;-76
2023/12/09 00:43:17;;;;;;;30.45;14.13;;;;;;;7.78;100.00;100812.47;5039322;28;20117;-76
2023/12/09 00:45:43;;;;;;;40.80;16.08;;;;;;;7.85;100.00;100814.59;5033973;28;20033;-76
2023/12/09 00:48:08;;;;;;;37.10;14.52;;;;;;;7.83;100.00;100806.59;5041571;28;20025;-75
2023/12/09 00:50:33;;;;;;;38.70;15.60;;;;;;;7.82;100.00;100813.34;5036210;28;20040;-76
2023/12/09 00:52:58;;;;;;;38.58;15.93;;;;;;;7.84;100.00;100810.19;5032246;28;20025;-75
2023/12/09 00:55:24;;;;;;;39.50;14.68;;;;;;;7.82;100.00;100815.31;5038548;28;20117;-76
2023/12/09 00:57:49;;;;;;;39.67;16.73;;;;;;;7.81;100.00;100817.31;5040066;28;20029;-75
2023/12/09 01:00:15;;;;;;;37.58;15.45;;;;;;;7.78;100.00;100817.19;5039829;28;20048;-75
2023/12/09 01:02:40;;;;;;;46.22;16.60;;;;;;;7.74;100.00;100806.78;5039022;28;20038;-75
2023/12/09 01:05:06;;;;;;;41.13;15.98;;;;;;;7.85;100.00;100814.59;5041131;28;20028;-76
2023/12/09 01:07:31;;;;;;;29.00;14.05;;;;;;;7.88;100.00;100823.03;5043946;28;20025;-75
2023/12/09 01:09:57;;;;;;;38.47;14.73;;;;;;;7.79;100.00;100813.25;5035267;28;20033;-76
2023/12/09 01:12:22;;;;;;;37.22;15.55;;;;;;;7.85;100.00;100820.19;5034022;28;20124;-76
2023/12/09 01:14:47;;;;;;;44.30;16.08;;;;;;;7.84;100.00;100816.59;5037431;28;20032;-76
2023/12/09 01:17:13;;;;;;;44.92;16.85;;;;;;;7.83;100.00;100814.97;5039806;28;20021;-76
2023/12/09 01:19:38;;;;;;;30.88;14.48;;;;;;;7.85;100.00;100820.97;5038694;28;20032;-75
2023/12/09 01:22:04;;;;;;;33.40;13.90;;;;;;;7.83;100.00;100822.53;5035904;28;20404;-76
2023/12/09 01:24:29;;;;;;;39.30;15.45;;;;;;;7.84;100.00;100832.47;5039466;28;20037;-76
2023/12/09 01:26:54;;;;;;;35.50;16.17;;;;;;;7.87;100.00;100829.78;5039632;28;20042;-76
2023/12/09 01:29:20;;;;;;;31.73;14.43;;;;;;;7.79;100.00;100829.97;5043335;28;20029;-76
2023/12/09 01:31:45;;;;;;;43.65;14.77;;;;;;;7.83;100.00;100826.09;5040000;28;20815;-76
2023/12/09 01:34:10;;;;;;;42.13;15.35;;;;;;;7.82;100.00;100815.31;5039387;28;20025;-75
2023/12/09 01:36:36;;;;;;;29.33;12.88;;;;;;;7.79;100.00;100814.06;5039085;28;20613;-75
2023/12/09 01:39:02;;;;;;;31.75;15.10;;;;;;;7.74;100.00;100817.13;5033661;28;20049;-75
2023/12/09 01:41:28;;;;;;;36.65;14.77;;;;;;;7.81;100.00;100811.72;5034180;28;20025;-75
2023/12/09 01:43:53;;;;;;;31.88;14.07;;;;;;;7.83;100.00;100812.19;5037885;28;20064;-75
2023/12/09 01:46:20;;;;;;;42.03;13.55;;;;;;;7.79;100.00;100805.72;5042506;28;20056;-75
2023/12/09 01:48:46;;;;;;;34.67;13.48;;;;;;;7.78;100.00;100812.47;5037571;28;20479;-75
2023/12/09 01:51:14;;;;;;;37.20;15.18;;;;;;;7.66;100.00;100820.91;5035243;28;20489;-75
2023/12/09 01:53:39;;;;;;;29.55;13.20;;;;;;;7.61;100.00;100813.63;5036954;28;20033;-75
2023/12/09 01:56:10;;;;;;;35.65;14.70;;;;;;;7.65;100.00;100814.53;5035015;28;20056;-75
2023/12/09 01:58:37;;;;;;;31.70;13.57;;;;;;;7.64;100.00;100812.09;5034618;28;20041;-75
2023/12/09 02:01:02;;;;;;;33.53;13.52;;;;;;;7.62;100.00;100798.53;5043631;28;20036;-75
2023/12/09 02:03:31;;;;;;;32.50;12.73;;;;;;;7.59;100.00;100807.63;5034338;28;20040;-75
2023/12/09 02:05:57;;;;;;;31.10;13.60;;;;;;;7.58;100.00;100799.59;5037688;28;20116;-75
2023/12/09 02:08:22;;;;;;;38.17;13.52;;;;;;;7.53;100.00;100798.72;5031345;28;20029;-75
2023/12/09 02:10:56;;;;;;;31.45;12.77;;;;;;;7.54;100.00;100791.16;5033730;28;20047;-75
2023/12/09 02:13:29;;;;;;;35.58;11.90;;;;;;;7.50;100.00;100796.63;5038817;28;20765;-75
2023/12/09 02:16:09;;;;;;;27.65;12.73;;;;;;;7.51;100.00;100798.25;5036927;28;20541;-75
2023/12/09 02:18:35;;;;;;;29.13;12.90;;;;;;;7.48;100.00;100798.16;5040048;28;20491;-75
2023/12/09 02:21:00;;;;;;;40.70;14.30;;;;;;;7.46;100.00;100794.91;5038738;28;20036;-75
2023/12/09 02:23:26;;;;;;;30.85;11.63;;;;;;;7.50;100.00;100782.69;5032877;28;20033;-75
2023/12/09 02:25:59;;;;;;;28.42;11.73;;;;;;;7.47;100.00;100777.06;5034175;28;20362;-75
2023/12/09 02:28:28;;;;;;;33.33;14.45;;;;;;;7.50;100.00;100788.28;5032466;28;20049;-75
2023/12/09 02:31:03;;;;;;;39.08;13.32;;;;;;;7.48;100.00;100782.28;5038694;28;21326;-75
2023/12/09 02:33:30;;;;;;;41.53;13.20;;;;;;;7.47;100.00;100769.50;5037597;28;20025;-75
2023/12/09 02:35:59;;;;;;;32.65;12.27;;;;;;;7.47;100.00;100769.50;5036761;28;20529;-75
2023/12/09 02:38:27;;;;;;;28.55;11.82;;;;;;;7.47;100.00;100769.50;5031233;28;20040;-75
2023/12/09 02:40:52;;;;;;;38.03;12.93;;;;;;;7.44;100.00;100764.66;5031239;28;20029;-75
2023/12/09 02:43:18;;;;;;;30.58;12.07;;;;;;;7.44;100.00;100770.25;5032585;28;20032;-73
2023/12/09 02:45:45;;;;;;;27.40;11.52;;;;;;;7.48;100.00;100768.34;5038018;28;20033;-73
2023/12/09 02:48:11;;;;;;;45.67;14.32;;;;;;;7.47;100.00;100775.06;5032048;28;20037;-74
2023/12/09 02:50:36;;;;;;;29.23;11.68;;;;;;;7.47;100.00;100761.16;5036652;28;20512;-75
2023/12/09 02:53:02;;;;;;;33.50;11.73;;;;;;;7.45;100.00;100752.34;5030569;28;20116;-74
2023/12/09 02:55:28;;;;;;;32.20;10.77;;;;;;;7.53;100.00;100756.13;5038414;28;20763;-73
2023/12/09 02:57:53;;;;;;;22.05;11.27;;;;;;;7.51;100.00;100758.47;5037652;28;20036;-74
2023/12/09 03:00:18;;;;;;;27.17;11.38;;;;;;;7.47;100.00;100754.78;5039867;28;20033;-73
2023/12/09 03:02:43;;;;;;;35.17;12.23;;;;;;;7.46;100.00;100756.75;5039966;28;20316;-75
2023/12/09 03:05:09;;;;;;;32.00;11.05;;;;;;;7.50;100.00;100754.84;5036613;28;20032;-73
2023/12/09 03:07:34;;;;;;;30.95;12.20;;;;;;;7.52;100.00;100744.16;5033615;28;20037;-72
2023/12/09 03:10:00;;;;;;;33.33;12.55;;;;;;;7.51;100.00;100753.69;5031227;28;20033;-73
2023/12/09 03:12:25;;;;;;;35.95;11.38;;;;;;;7.52;100.00;100744.16;5037898;28;20789;-74
2023/12/09 03:14:50;;;;;;;27.77;11.25;;;;;;;7.46;100.00;100740.06;5034066;28;20040;-73
2023/12/09 03:17:16;;;;;;;28.05;10.85;;;;;;;7.52;100.00;100733.00;5031757;28;20501;-75
2023/12/09 03:19:41;;;;;;;29.20;11.48;;;;;;;7.55;100.00;100725.94;5037390;28;20041;-73
2023/12/09 03:22:07;;;;;;;29.35;10.82;;;;;;;7.48;100.00;100729.38;5040002;28;20028;-73
2023/12/09 03:24:32;;;;;;;23.90;9.15;;;;;;;7.47;100.00;100713.00;5029937;28;20102;-73
2023/12/09 03:26:57;;;;;;;31.85;10.80;;;;;;;7.48;100.00;100712.66;5032393;28;20032;-75
2023/12/09 03:29:23;;;;;;;33.35;10.93;;;;;;;7.46;100.00;100717.78;5034472;28;20025;-73
2023/12/09 03:31:48;;;;;;;27.42;11.48;;;;;;;7.52;100.00;100710.72;5033881;28;20048;-74
2023/12/09 03:34:14;;;;;;;38.25;11.23;;;;;;;7.47;100.00;100719.38;5029798;28;20104;-76
2023/12/09 03:36:40;;;;;;;32.17;11.98;;;;;;;7.44;100.00;100714.53;5036050;28;20065;-73
2023/12/09 03:39:06;;;;;;;38.30;10.95;;;;;;;7.45;100.00;100713.34;5033327;28;20576;-75
2023/12/09 03:41:32;;;;;;;27.88;11.13;;;;;;;7.49;100.00;100721.81;5038008;28;20029;-73
2023/12/09 03:43:58;;;;;;;30.10;10.45;;;;;;;7.49;100.00;100722.59;5033280;28;20041;-73
2023/12/09 03:46:23;;;;;;;25.75;10.85;;;;;;;7.46;100.00;100728.09;5043917;28;20110;-73
2023/12/09 03:48:48;;;;;;;23.80;9.90;;;;;;;7.46;100.00;100726.13;5032551;28;20033;-74
2023/12/09 03:51:14;;;;;;;20.67;10.02;;;;;;;7.43;100.00;100717.69;5034423;28;20263;-75
2023/12/09 03:53:41;;;;;;;26.98;11.68;;;;;;;7.52;100.00;100726.66;5036153;28;20033;-75
2023/12/09 03:56:06;;;;;;;27.23;10.90;;;;;;;7.51;100.00;100725.03;5031640;28;20042;-73
2023/12/09 03:58:32;;;;;;;34.00;13.00;;;;;;;7.44;100.00;100725.69;5033530;28;20493;-73
2023/12/09 04:00:57;;;;;;;32.72;11.50;;;;;;;7.43;100.00;100712.91;5035163;28;20551;-73
2023/12/09 04:03:23;;;;;;;21.98;10.13;;;;;;;7.42;100.00;100704.91;5035059;28;20071;-73
2023/12/09 04:05:48;;;;;;;24.70;9.77;;;;;;;7.45;100.00;100707.00;5037468;28;20489;-74
2023/12/09 04:08:13;;;;;;;22.40;9.30;;;;;;;7.44;100.00;100706.19;5032202;28;20063;-73
2023/12/09 04:10:38;;;;;;;21.95;9.85;;;;;;;7.43;100.00;100712.91;5042689;28;20758;-73
2023/12/09 04:13:04;;;;;;;26.63;11.10;;;;;;;7.43;100.00;100707.34;5040870;28;20021;-73
2023/12/09 04:15:29;;;;;;;24.35;9.13;;;;;;;7.44;100.00;100697.84;5031464;28;20115;-74
2023/12/09 04:17:54;;;;;;;41.85;13.20;;;;;;;7.47;100.00;100713.81;5034305;28;20029;-74
2023/12/09 04:20:20;;;;;;;24.25;8.93;;;;;;;7.46;100.00;100720.56;5036234;28;20056;-73
2023/12/09 04:22:47;;;;;;;29.75;10.32;;;;;;;7.46;100.00;100719.72;5041208;28;20032;-73
2023/12/09 04:25:12;;;;;;;28.52;11.10;;;;;;;7.47;100.00;100724.94;5032227;28;20091;-73
2023/12/09 04:27:39;;;;;;;34.97;9.23;;;;;;;7.45;100.00;100713.34;5034271;28;20033;-73
2023/12/09 04:30:05;;;;;;;31.05;11.45;;;;;;;7.44;100.00;100703.41;5038520;28;20025;-74
2023/12/09 04:32:31;;;;;;;24.75;11.50;;;;;;;7.43;100.00;100701.78;5033124;28;20499;-73
2023/12/09 04:34:57;;;;;;;28.33;10.93;;;;;;;7.43;100.00;100696.19;5040877;28;20075;-74
2023/12/09 04:37:23;;;;;;;28.23;11.02;;;;;;;7.45;100.00;100690.28;5041973;28;20032;-72
2023/12/09 04:39:49;;;;;;;36.92;11.45;;;;;;;7.37;100.00;100685.69;5040357;28;20444;-74
2023/12/09 04:42:14;;;;;;;26.65;9.70;;;;;;;7.40;100.00;100685.78;5037555;28;20025;-74
2023/12/09 04:44:39;;;;;;;28.02;10.25;;;;;;;7.31;100.00;100680.38;5036908;28;20413;-73
2023/12/09 04:47:06;;;;;;;37.25;9.73;;;;;;;7.36;100.00;100684.91;5037288;28;20037;-75
2023/12/09 04:49:31;;;;;;;20.85;8.95;;;;;;;7.37;100.00;100689.28;5034433;28;20037;-75
2023/12/09 04:51:57;;;;;;;19.85;9.60;;;;;;;7.31;100.00;100682.38;5034479;28;20036;-73
2023/12/09 04:54:22;;;;;;;27.90;9.82;;;;;;;7.31;100.00;100687.94;5036569;28;20037;-75
2023/12/09 04:56:47;;;;;;;21.23;8.88;;;;;;;7.26;100.00;100682.66;5037923;28;20665;-73
2023/12/09 04:59:13;;;;;;;28.10;11.00;;;;;;;7.30;100.00;100686.34;5036614;28;20488;-73
2023/12/09 05:01:39;;;;;;;22.02;10.73;;;;;;;7.28;100.00;100677.53;5034871;28;20040;-73
2023/12/09 05:04:04;;;;;;;29.40;9.98;;;;;;;7.25;100.00;100675.47;5037535;28;20037;-76
2023/12/09 05:06:29;;;;;;;20.00;9.30;;;;;;;7.24;100.00;100685.00;5038362;28;20033;-76
2023/12/09 05:08:55;;;;;;;29.13;9.88;;;;;;;7.21;100.00;100683.75;5039388;28;20131;-76
2023/12/09 05:11:20;;;;;;;25.65;10.07;;;;;;;7.21;100.00;100685.69;5039708;28;20029;-76
2023/12/09 05:13:45;;;;;;;39.67;11.05;;;;;;;7.20;100.00;100681.31;5047171;28;20025;-76
2023/12/09 05:16:11;;;;;;;21.25;9.63;;;;;;;7.23;100.00;100669.44;5045893;28;20108;-76
2023/12/09 05:18:36;;;;;;;23.70;9.45;;;;;;;7.19;100.00;100663.81;5036553;28;20061;-76
2023/12/09 05:21:04;;;;;;;23.15;10.13;;;;;;;7.11;100.00;100660.03;5037913;28;20060;-75
2023/12/09 05:23:30;;;;;;;25.42;8.65;;;;;;;7.09;100.00;100670.72;5037729;28;20033;-76
2023/12/09 05:25:55;;;;;;;27.35;9.43;;;;;;;7.13;100.00;100660.47;5036824;28;20115;-75
2023/12/09 05:28:21;;;;;;;24.98;9.10;;;;;;;7.08;100.00;100663.56;5039499;28;20096;-76
2023/12/09 05:30:48;;;;;;;22.58;9.93;;;;;;;7.05;100.00;100655.09;5033532;28;20041;-75
2023/12/09 05:33:13;;;;;;;26.63;9.80;;;;;;;7.02;100.00;100653.03;5035992;28;20021;-75
2023/12/09 05:35:38;;;;;;;21.60;8.20;;;;;;;7.05;100.00;100661.47;5036891;28;20044;-77
2023/12/09 05:38:04;;;;;;;23.00;8.60;;;;;;;6.99;100.00;100654.56;5040898;28;20029;-77
2023/12/09 05:40:29;;;;;;;27.73;10.60;;;;;;;6.99;100.00;100648.19;5037270;28;20106;-76
2023/12/09 05:42:55;;;;;;;28.85;9.52;;;;;;;6.95;100.00;100645.31;5035690;28;20033;-76
2023/12/09 05:45:20;;;;;;;28.00;10.88;;;;;;;6.92;100.00;100646.03;5036674;28;20049;-76
2023/12/09 05:47:46;;;;;;;21.73;7.80;;;;;;;6.98;100.00;100644.59;5041387;28;20052;-76
2023/12/09 05:50:11;;;;;;;20.80;7.88;;;;;;;6.98;100.00;100643.78;5042641;28;20091;-76
2023/12/09 05:52:37;;;;;;;27.08;9.35;;;;;;;6.97;100.00;100629.06;5041371;28;20036;-76
2023/12/09 05:55:02;;;;;;;26.30;9.88;;;;;;;6.88;100.00;100620.09;5041844;28;20110;-76
2023/12/09 05:57:28;;;;;;;21.23;9.07;;;;;;;6.96;100.00;100630.25;5046278;28;20440;-75
2023/12/09 05:59:53;;;;;;;19.95;8.05;;;;;;;7.03;100.00;100632.38;5036909;28;20060;-76
2023/12/09 06:02:19;;;;;;;24.67;8.07;;;;;;;7.01;100.00;100654.19;5039281;28;20501;-77
2023/12/09 06:04:44;;;;;;;30.27;8.35;;;;;;;7.05;100.00;100639.19;5033941;28;20072;-76
2023/12/09 06:07:09;;;;;;;23.27;8.23;;;;;;;7.02;100.00;100637.16;5038896;28;20032;-76
2023/12/09 06:09:35;;;;;;;22.50;9.13;;;;;;;6.96;100.00;100633.03;5038933;28;20071;-76
2023/12/09 06:12:00;;;;;;;26.73;9.02;;;;;;;7.00;100.00;100627.53;5041022;28;20041;-76
2023/12/09 06:14:25;;;;;;;19.80;7.45;;;;;;;7.03;100.00;100626.81;5039665;28;20128;-76
2023/12/09 06:16:51;;;;;;;24.83;8.07;;;;;;;6.99;100.00;100615.59;5043092;28;20102;-76
2023/12/09 06:19:16;;;;;;;16.55;8.32;;;;;;;7.03;100.00;100613.72;5035554;28;20033;-76
2023/12/09 06:21:41;;;;;;;26.42;8.55;;;;;;;6.98;100.00;100605.66;5033133;28;20025;-76
2023/12/09 06:24:07;;;;;;;15.93;7.50;;;;;;;6.98;100.00;100604.81;5029268;28;20033;-77
2023/12/09 06:26:32;;;;;;;25.05;9.13;;;;;;;6.99;100.00;100612.00;5034252;28;20164;-78
2023/12/09 06:28:57;;;;;;;19.73;8.05;;;;;;;6.93;100.00;100600.34;5033270;28;20021;-77
2023/12/09 06:31:23;;;;;;;24.52;8.38;;;;;;;6.99;100.00;100593.34;5036726;28;20784;-77
2023/12/09 06:33:48;;;;;;;18.92;8.20;;;;;;;7.03;100.00;100593.44;5032975;28;20159;-77
2023/12/09 06:36:13;;;;;;;18.48;7.28;;;;;;;7.04;100.00;100595.84;5040512;28;20046;-76
2023/12/09 06:38:39;;;;;;;14.02;5.88;;;;;;;6.95;100.00;100580.50;5037709;28;20059;-77
2023/12/09 06:41:05;;;;;;;28.15;8.63;;;;;;;6.99;100.00;100581.41;5039458;28;20059;-77
2023/12/09 06:43:31;;;;;;;30.30;8.50;;;;;;;6.92;100.00;100576.47;5035939;28;20073;-77
2023/12/09 06:45:58;;;;;;;26.40;7.15;;;;;;;6.96;100.00;100580.16;5032321;28;20053;-78
2023/12/09 06:48:24;;;;;;;23.08;8.75;;;;;;;6.94;100.00;100568.56;5030536;28;21591;-77
2023/12/09 06:50:49;;;;;;;15.52;7.57;;;;;;;6.94;100.00;100568.56;5027834;28;20036;-77
2023/12/09 06:53:14;;;;;;;23.35;9.32;;;;;;;6.88;100.00;100570.00;5036660;28;20030;-77
2023/12/09 06:55:40;;;;;;;19.23;7.45;;;;;;;6.94;100.00;100554.66;5031299;28;20037;-77
2023/12/09 06:58:05;;;;;;;17.58;7.70;;;;;;;6.92;100.00;100559.78;5032637;28;20481;-77
2023/12/09 07:00:31;;;;;;;22.33;8.73;;;;;;;6.92;100.00;100559.78;5034600;28;20164;-77
2023/12/09 07:02:56;;;;;;;17.13;7.32;;;;;;;6.91;100.00;100558.16;5030201;28;20049;-78
2023/12/09 07:05:21;;;;;;;21.02;7.00;;;;;;;6.84;100.00;100541.31;5036138;28;20746;-77
2023/12/09 07:07:48;;;;;;;16.88;6.22;;;;;;;6.84;100.00;100544.09;5034850;28;20564;-77
2023/12/09 07:10:14;;;;;;;17.42;6.95;;;;;;;6.88;100.00;100554.13;5032290;28;20048;-77
2023/12/09 07:12:39;;;;;;;18.70;6.70;;;;;;;6.86;100.00;100550.09;5036440;28;20029;-76
2023/12/09 07:15:06;;;;;;;20.98;7.05;;;;;;;6.80;100.00;100534.84;5043293;28;20098;-77
2023/12/09 07:17:31;;;;;;;20.63;6.93;;;;;;;6.75;100.00;100532.34;5032096;28;20041;-77
2023/12/09 07:19:59;;;;;;;23.67;8.77;;;;;;;6.76;100.00;100520.84;5034977;28;20033;-77
2023/12/09 07:22:24;;;;;;;16.48;7.38;;;;;;;6.76;100.00;100512.50;5033883;28;20409;-77
2023/12/09 07:24:50;;;;;;;29.27;7.60;;;;;;;6.74;100.00;100522.38;5031961;28;20034;-76
2023/12/09 07:27:15;;;;;;;12.70;6.63;;;;;;;6.75;100.00;100510.09;5035923;28;20598;-76
2023/12/09 07:29:41;;;;;;;20.50;6.43;;;;;;;6.65;100.00;100501.13;5039630;28;20076;-76
2023/12/09 07:32:06;;;;;;;19.98;6.30;;;;;;;6.73;100.00;100482.63;5039555;28;20049;-75
2023/12/09 07:34:31;;;;;;;19.42;7.03;;;;;;;6.69;100.00;100496.44;5032611;28;20028;-75
2023/12/09 07:36:57;;;;;;;16.27;5.90;;;;;;;6.72;100.00;100498.53;5042571;28;20033;-76
2023/12/09 07:39:22;;;;;;;21.52;6.85;;;;;;;6.68;100.00;100492.06;5036308;28;20037;-76
2023/12/09 07:41:50;;;;;;;21.88;6.80;;;;;;;6.67;100.00;100493.22;5038022;28;20045;-77
2023/12/09 07:44:18;;;;;;;16.45;5.97;;;;;;;6.66;100.00;100486.06;5038331;28;20084;-76
2023/12/09 07:46:43;;;;;;;21.10;6.38;;;;;;;6.66;100.00;100493.56;5038073;28;20137;-76
2023/12/09 07:49:09;;;;;;;24.92;6.63;;;;;;;6.62;100.00;100496.28;5035797;28;20116;-76
2023/12/09 07:51:34;;;;;;;18.92;6.35;;;;;;;6.66;100.00;100488.84;5035126;28;20100;-76
2023/12/09 07:54:00;;;;;;;16.17;5.82;;;;;;;6.64;100.00;100480.03;5038807;28;20405;-76
2023/12/09 07:56:25;;;;;;;17.63;6.22;;;;;;;6.69;100.00;100484.53;5036884;28;20092;-77
2023/12/09 07:58:50;;;;;;;19.60;5.72;;;;;;;6.70;100.00;100481.38;5042617;28;20215;-76
2023/12/09 08:01:16;;;;;;;21.00;5.93;;;;;;;6.64;100.00;100477.25;5031853;28;20391;-76
2023/12/09 08:03:41;;;;;;;16.42;6.68;;;;;;;6.65;100.00;100484.44;5037855;28;20029;-76
2023/12/09 08:06:07;;;;;;;20.38;5.45;;;;;;;6.67;100.00;100493.22;5035649;28;20043;-77
2023/12/09 08:08:32;;;;;;;15.07;5.93;;;;;;;6.66;100.00;100480.50;5034294;28;20036;-76
2023/12/09 08:10:58;;;;;;;22.65;6.85;;;;;;;6.62;100.00;100479.59;5031866;28;20044;-76
2023/12/09 08:13:24;;;;;;;15.15;5.05;;;;;;;6.57;100.00;100471.50;5035275;28;20596;-76
2023/12/09 08:15:49;;;;;;;12.43;5.13;;;;;;;6.56;100.00;100464.34;5033291;28;20048;-77
2023/12/09 08:18:16;;;;;;;14.95;4.88;;;;;;;6.63;100.00;100467.28;5030806;28;20032;-76
2023/12/09 08:20:41;;;;;;;13.35;4.60;;;;;;;6.64;100.00;100470.88;5031347;28;20052;-76
2023/12/09 08:23:09;;;;;;;16.02;6.75;;;;;;;6.66;100.00;100462.97;5031298;28;20033;-77
2023/12/09 08:25:35;;;;;;;24.10;5.97;;;;;;;6.63;100.00;100455.38;5032858;28;20040;-76
2023/12/09 08:28:00;;;;;;;17.02;5.63;;;;;;;6.62;100.00;100449.00;5034363;28;20060;-76
2023/12/09 08:30:25;;;;;;;10.32;4.82;;;;;;;6.64;100.00;100443.91;5034957;28;20034;-76
2023/12/09 08:32:51;;;;;;;11.73;4.72;;;;;;;6.62;100.00;100446.22;5032783;28;20493;-77
2023/12/09 08:35:16;;;;;;;19.15;5.03;;;;;;;6.65;100.00;100434.38;5028266;28;20037;-77
2023/12/09 08:37:41;;;;;;;20.85;7.00;;;;;;;6.63;100.00;100431.13;5030296;28;20033;-77
2023/12/09 08:40:11;;;;;;;14.70;4.85;;;;;;;6.69;100.00;100429.69;5034147;28;20101;-77
2023/12/09 08:42:38;;;;;;;9.57;4.28;;;;;;;6.72;100.00;100428.16;5030897;28;20072;-77
2023/12/09 08:45:04;;;;;;;24.52;5.57;;;;;;;6.68;100.00;100416.97;5031705;28;20069;-77
2023/12/09 08:47:29;;;;;;;9.88;4.47;;;;;;;6.72;100.00;100405.91;5033298;28;20124;-77
2023/12/09 08:49:54;;;;;;;11.32;4.95;;;;;;;6.76;100.00;100395.66;5034449;28;20060;-77
2023/12/09 08:52:21;;;;;;;14.68;4.82;;;;;;;6.70;100.00;100403.50;5037663;28;20400;-77
2023/12/09 08:54:46;;;;;;;16.60;5.85;;;;;;;6.71;100.00;100388.41;5034517;28;20083;-77
2023/12/09 08:57:12;;;;;;;10.45;3.70;;;;;;;6.75;100.00;100393.28;5038290;28;20021;-77
2023/12/09 08:59:37;;;;;;;13.32;4.10;;;;;;;6.77;100.00;100393.69;5034171;28;20020;-77
2023/12/09 09:02:02;;;;;;;10.13;4.00;;;;;;;6.77;100.00;100386.16;5033407;28;20033;-77
2023/12/09 09:04:28;;;;;;;11.15;3.78;;;;;;;6.78;100.00;100386.97;5035415;28;20037;-77
2023/12/09 09:06:53;;;;;;;10.23;3.88;;;;;;;6.86;100.00;100388.72;5034926;28;20432;-77
2023/12/09 09:09:18;;;;;;;13.48;3.78;;;;;;;6.86;100.00;100388.72;5037492;28;20671;-77
2023/12/09 09:11:44;;;;;;;13.65;4.68;;;;;;;6.95;100.00;100394.06;5034918;28;20044;-77
2023/12/09 09:14:09;;;;;;;14.30;4.40;;;;;;;7.01;100.00;100390.63;5040593;28;20036;-76
2023/12/09 09:16:35;;;;;;;12.88;4.75;;;;;;;7.03;100.00;100387.50;5033400;28;20033;-76
2023/12/09 09:19:00;;;;;;;23.65;4.60;;;;;;;7.05;100.00;100387.94;5035139;28;20044;-77
2023/12/09 09:21:26;;;;;;;8.98;3.90;;;;;;;7.00;100.00;100377.91;5036870;28;20765;-76
2023/12/09 09:23:51;;;;;;;8.10;3.85;;;;;;;7.05;100.00;100374.03;5038668;28;20681;-76
2023/12/09 09:26:17;;;;;;;10.85;4.25;;;;;;;7.06;100.00;100372.84;5032412;28;20091;-76
2023/12/09 09:28:43;;;;;;;17.23;4.07;;;;;;;7.09;100.00;100375.69;5032035;28;20048;-75
2023/12/09 09:31:10;;;;;;;10.60;4.57;;;;;;;7.07;100.00;100358.56;5034560;28;20061;-76
2023/12/09 09:33:36;;;;;;;18.20;4.45;;;;;;;7.11;100.00;100365.00;5037302;28;20029;-76
2023/12/09 09:36:01;;;;;;;21.88;4.70;;;;;;;7.10;100.00;100349.50;5032497;28;20026;-76
2023/12/09 09:38:26;;;;;;;8.68;3.65;;;;;;;7.17;100.00;100356.34;5030960;28;20064;-76
2023/12/09 09:40:52;;;;;;;21.75;4.72;;;;;;;7.12;100.00;100349.91;5031191;28;20044;-76
2023/12/09 09:43:21;;;;;;;10.27;3.58;;;;;;;7.12;100.00;100341.56;5033202;28;20025;-76
2023/12/09 09:45:48;;;;;;;17.08;4.78;;;;;;;7.17;100.00;100346.03;5038017;28;20037;-73
2023/12/09 09:48:16;;;;;;;12.05;3.90;;;;;;;7.16;100.00;100333.28;5032619;28;20032;-73
2023/12/09 09:50:45;;;;;;;9.93;3.20;;;;;;;7.13;100.00;100332.06;5034212;28;20040;-73
2023/12/09 09:53:12;;;;;;;9.98;3.53;;;;;;;7.13;100.00;100320.13;5031134;28;20102;-75
2023/12/09 09:55:42;;;;;;;11.05;4.53;;;;;;;7.17;100.00;100304.28;5032866;28;20042;-73
2023/12/09 09:58:07;;;;;;;6.90;2.92;;;;;;;7.23;100.00;100286.13;5034731;28;20029;-75
2023/12/09 10:00:33;;;;;;;19.85;6.20;;;;;;;7.28;100.00;100283.03;5034537;28;20056;-74
2023/12/09 10:02:59;;;;;;;12.68;3.65;;;;;;;7.29;100.00;100276.28;5035992;28;20033;-72
2023/12/09 10:05:24;;;;;;;11.55;3.80;;;;;;;7.27;100.00;100264.72;5033802;28;20044;-75
2023/12/09 10:07:51;;;;;;;13.20;3.58;;;;;;;7.29;100.00;100258.75;5036955;28;20025;-73
2023/12/09 10:10:17;;;;;;;11.48;3.33;;;;;;;7.27;100.00;100249.97;5035359;28;20033;-75
2023/12/09 10:12:43;;;;;;;14.35;4.40;;;;;;;7.28;100.00;100243.25;5039210;28;20029;-75
2023/12/09 10:15:09;;;;;;;11.07;3.25;;;;;;;7.26;100.00;100231.69;5032865;28;20059;-74
2023/12/09 10:17:35;;;;;;;8.10;3.70;;;;;;;7.31;100.00;100231.34;5040736;28;20033;-74
2023/12/09 10:20:01;;;;;;;7.13;3.03;;;;;;;7.27;100.00;100211.81;5034290;28;20037;-74
2023/12/09 10:22:27;;;;;;;11.63;2.75;;;;;;;7.29;100.00;100200.31;5038017;28;20040;-74
2023/12/09 10:24:54;;;;;;;6.90;2.45;;;;;;;7.30;100.00;100190.78;5032174;28;20041;-76
2023/12/09 10:27:24;;;;;;;7.63;3.00;;;;;;;7.31;100.00;100192.38;5029070;28;20156;-74
2023/12/09 10:29:55;;;;;;;7.60;3.22;;;;;;;7.28;100.00;100182.00;5032615;28;20388;-74
2023/12/09 10:32:21;;;;;;;10.38;2.83;;;;;;;7.34;100.00;100177.72;5030938;28;20413;-73
2023/12/09 10:34:50;;;;;;;8.55;2.28;;;;;;;7.32;100.00;100182.88;5030735;28;20052;-74
2023/12/09 10:37:16;;;;;;;13.20;3.65;;;;;;;7.32;100.00;100180.88;5034721;28;20084;-74
2023/12/09 10:39:43;;;;;;;7.68;2.80;;;;;;;7.36;100.00;100177.34;5034222;28;20109;-74
2023/12/09 10:42:09;;;;;;;16.00;3.28;;;;;;;7.30;100.00;100174.09;5035983;28;20445;-75
2023/12/09 10:44:34;;;;;;;8.63;2.85;;;;;;;7.33;100.00;100176.09;5031240;28;20041;-76
2023/12/09 10:46:59;;;;;;;9.35;3.58;;;;;;;7.35;100.00;100165.41;5030095;28;20040;-75
2023/12/09 10:49:25;;;;;;;9.07;3.15;;;;;;;7.31;100.00;100153.41;5031657;28;20032;-75
2023/12/09 10:51:50;;;;;;;8.05;2.60;;;;;;;7.36;100.00;100141.97;5032492;28;20083;-75
2023/12/09 10:54:15;;;;;;;13.77;3.35;;;;;;;7.39;100.00;100132.84;5033394;28;20033;-74
2023/12/09 10:56:43;;;;;;;10.70;2.78;;;;;;;7.39;100.00;100124.50;5030275;28;20491;-74
2023/12/09 10:59:08;;;;;;;7.72;2.80;;;;;;;7.43;100.00;100121.78;5033601;28;20492;-76
2023/12/09 11:01:35;;;;;;;7.50;2.63;;;;;;;7.41;100.00;100113.78;5037910;28;20029;-74
2023/12/09 11:04:03;;;;;;;11.40;3.20;;;;;;;7.46;100.00;100099.56;5028857;28;20060;-73
2023/12/09 11:06:36;;;;;;;5.07;2.10;;;;;;;7.43;100.00;100088.38;5033918;28;20029;-74
2023/12/09 11:09:05;;;;;;;7.30;2.75;;;;;;;7.43;100.00;100066.88;5032321;28;20091;-76